Time;durP1;ratioP1;P1;durP2;ratioP2;P2;SDS_P1;SDS_P2;PMS_P1;PMS_P2;Temp;Humidity;BMP_temperature;BMP_pressure;BME280_temperature;BME280_humidity;BME280_pressure;Samples;Min_cycle;Max_cycle;Signal;HPM_P1;HPM_P2
2023/04/04 00:01:28;;;;;;;8.68;4.43;;;4.50;98.60;;;;;;5068434;28;20856;-70
2023/04/04 00:03:54;;;;;;;8.15;4.93;;;4.40;99.00;;;;;;5068295;28;20036;-68
2023/04/04 00:06:20;;;;;;;8.77;4.82;;;4.40;99.50;;;;;;5064171;28;20384;-70
2023/04/04 00:08:46;;;;;;;7.72;4.85;;;4.40;99.40;;;;;;5044397;28;20044;-70
2023/04/04 00:11:12;;;;;;;8.10;4.72;;;4.40;99.60;;;;;;5049791;28;20492;-69
2023/04/04 00:13:38;;;;;;;10.27;5.22;;;4.30;99.90;;;;;;5063255;28;20048;-70
2023/04/04 00:16:05;;;;;;;7.93;4.95;;;4.30;99.80;;;;;;5046592;28;20044;-69
2023/04/04 00:18:31;;;;;;;8.50;5.10;;;4.30;99.90;;;;;;5041748;28;20387;-68
2023/04/04 00:20:57;;;;;;;11.50;4.80;;;4.30;99.90;;;;;;5059542;28;20041;-71
2023/04/04 00:23:23;;;;;;;7.03;4.97;;;4.30;99.90;;;;;;5037347;28;20075;-70
2023/04/04 00:25:51;;;;;;;7.47;4.88;;;4.30;99.90;;;;;;5049090;28;20539;-70
2023/04/04 00:28:20;;;;;;;9.10;5.13;;;4.20;99.90;;;;;;5065039;28;20475;-70
2023/04/04 00:30:46;;;;;;;11.10;4.90;;;4.20;99.90;;;;;;5065781;28;20060;-69
2023/04/04 00:33:13;;;;;;;9.57;4.75;;;4.10;99.90;;;;;;5061863;28;20056;-70
2023/04/04 00:35:39;;;;;;;10.80;5.10;;;4.10;99.90;;;;;;5068691;28;20127;-70
2023/04/04 00:38:04;;;;;;;8.82;5.10;;;4.10;99.90;;;;;;5051348;28;20159;-69
2023/04/04 00:40:30;;;;;;;8.38;5.00;;;4.00;99.90;;;;;;5064516;28;20036;-69
2023/04/04 00:42:58;;;;;;;8.55;4.93;;;4.00;99.90;;;;;;5065049;28;20037;-69
2023/04/04 00:45:25;;;;;;;8.85;4.57;;;4.00;99.90;;;;;;5049473;28;20060;-69
2023/04/04 00:47:51;;;;;;;8.20;4.85;;;4.00;99.90;;;;;;5063498;28;20041;-69
2023/04/04 00:50:17;;;;;;;7.60;4.90;;;3.90;99.90;;;;;;5067315;28;20044;-69
2023/04/04 00:52:42;;;;;;;9.48;4.90;;;3.90;99.90;;;;;;5062103;28;20407;-69
2023/04/04 00:55:08;;;;;;;9.75;5.05;;;3.90;99.90;;;;;;5067703;28;20387;-68
2023/04/04 00:57:34;;;;;;;11.93;4.82;;;3.80;99.90;;;;;;5043770;28;20086;-69
2023/04/04 01:00:03;;;;;;;7.35;4.60;;;3.80;99.90;;;;;;5064444;28;20521;-70
2023/04/04 01:02:30;;;;;;;9.80;5.45;;;3.80;99.90;;;;;;5061411;28;20052;-69
2023/04/04 01:04:56;;;;;;;7.18;4.70;;;3.80;99.90;;;;;;5065886;28;20434;-68
2023/04/04 01:07:22;;;;;;;7.18;4.78;;;3.80;99.90;;;;;;5066912;28;20040;-70
2023/04/04 01:09:48;;;;;;;8.85;4.60;;;3.70;99.90;;;;;;5060937;28;20068;-70
2023/04/04 01:12:14;;;;;;;7.30;4.45;;;3.70;99.50;;;;;;5048174;28;20033;-70
2023/04/04 01:14:40;;;;;;;9.45;4.38;;;3.70;99.30;;;;;;5064705;28;20049;-70
2023/04/04 01:17:06;;;;;;;7.22;4.45;;;3.70;98.90;;;;;;5070208;28;20083;-68
2023/04/04 01:19:47;;;;;;;8.35;4.82;;;3.70;98.50;;;;;;5066404;28;20044;-69
2023/04/04 01:22:13;;;;;;;6.60;4.30;;;3.70;97.80;;;;;;5060417;28;20064;-69
2023/04/04 01:24:42;;;;;;;9.45;4.90;;;3.70;97.60;;;;;;5059664;28;20391;-68
2023/04/04 01:27:07;;;;;;;10.55;5.13;;;3.60;97.20;;;;;;5048707;28;20370;-69
2023/04/04 01:29:33;;;;;;;6.32;4.22;;;3.60;97.10;;;;;;5050205;28;20059;-70
2023/04/04 01:32:18;;;;;;;8.02;4.40;;;3.60;97.10;;;;;;5058797;28;20069;-69
2023/04/04 01:35:06;;;;;;;9.60;4.80;;;3.50;97.00;;;;;;5040026;28;20118;-69
2023/04/04 01:37:56;;;;;;;12.18;4.38;;;3.50;97.10;;;;;;5049426;28;20123;-69
2023/04/04 01:40:33;;;;;;;8.30;4.47;;;3.50;96.40;;;;;;5062312;28;20041;-68
2023/04/04 01:43:00;;;;;;;8.07;3.75;;;3.50;96.10;;;;;;5064385;28;20090;-69
2023/04/04 01:45:27;;;;;;;8.45;4.55;;;3.40;95.60;;;;;;5062600;28;20123;-68
2023/04/04 01:47:52;;;;;;;6.20;3.88;;;3.40;95.70;;;;;;5059443;28;20089;-69
2023/04/04 01:50:18;;;;;;;9.85;4.38;;;3.30;95.70;;;;;;5064515;28;20036;-69
2023/04/04 01:52:44;;;;;;;6.82;3.85;;;3.30;95.60;;;;;;5057078;28;20127;-69
2023/04/04 01:55:12;;;;;;;8.30;4.30;;;3.30;95.50;;;;;;5063408;28;20131;-68
2023/04/04 01:57:38;;;;;;;7.82;4.50;;;3.30;95.50;;;;;;5066535;28;20162;-68
2023/04/04 02:00:04;;;;;;;8.07;4.18;;;3.30;95.60;;;;;;5064642;28;20131;-69
2023/04/04 02:02:30;;;;;;;7.82;4.40;;;3.20;95.40;;;;;;5059707;28;20061;-68
2023/04/04 02:04:56;;;;;;;9.15;4.20;;;3.20;95.50;;;;;;5049158;28;20060;-69
2023/04/04 02:07:22;;;;;;;8.63;4.30;;;3.20;95.30;;;;;;5065832;28;20123;-70
2023/04/04 02:09:47;;;;;;;7.55;3.83;;;3.20;95.30;;;;;;5063992;28;20044;-69
2023/04/04 02:12:13;;;;;;;7.40;4.45;;;3.20;95.40;;;;;;5044157;28;20044;-70
2023/04/04 02:14:39;;;;;;;7.68;4.50;;;3.20;95.40;;;;;;5066218;28;20119;-70
2023/04/04 02:17:05;;;;;;;9.30;4.10;;;3.20;95.30;;;;;;5061974;28;20387;-70
2023/04/04 02:19:31;;;;;;;8.43;3.97;;;3.10;95.30;;;;;;5067590;28;20044;-68
2023/04/04 02:21:57;;;;;;;9.70;4.50;;;3.10;95.50;;;;;;5071196;28;20036;-68
2023/04/04 02:24:22;;;;;;;7.22;3.78;;;3.10;95.80;;;;;;5063786;28;20059;-69
2023/04/04 02:26:48;;;;;;;8.50;4.28;;;3.10;95.70;;;;;;5061848;28;20052;-68
2023/04/04 02:29:14;;;;;;;10.52;4.47;;;3.10;95.80;;;;;;5068850;28;20055;-69
2023/04/04 02:31:40;;;;;;;8.35;4.30;;;3.00;95.80;;;;;;5065892;28;20129;-69
2023/04/04 02:34:05;;;;;;;8.35;4.35;;;3.00;95.80;;;;;;5059537;28;20068;-69
2023/04/04 02:36:31;;;;;;;8.38;4.13;;;3.00;95.60;;;;;;5066582;28;20041;-69
2023/04/04 02:38:56;;;;;;;7.78;4.55;;;2.90;95.70;;;;;;5061508;28;20040;-69
2023/04/04 02:41:22;;;;;;;6.88;4.10;;;2.90;95.80;;;;;;5059804;28;20508;-69
2023/04/04 02:43:48;;;;;;;9.27;4.53;;;2.90;96.00;;;;;;5045167;28;20049;-69
2023/04/04 02:46:13;;;;;;;7.20;3.75;;;2.80;96.10;;;;;;5058383;28;20120;-69
2023/04/04 02:48:39;;;;;;;9.48;3.92;;;2.80;96.00;;;;;;5063089;28;20423;-69
2023/04/04 02:51:05;;;;;;;5.78;3.80;;;2.80;95.90;;;;;;5045983;28;20036;-69
2023/04/04 02:53:31;;;;;;;6.60;3.90;;;2.80;95.80;;;;;;5067271;28;20058;-68
2023/04/04 02:55:57;;;;;;;6.40;3.78;;;2.80;95.50;;;;;;5043992;28;20059;-68
2023/04/04 02:58:23;;;;;;;7.53;3.88;;;2.70;95.50;;;;;;5068969;28;20093;-68
2023/04/04 03:00:55;;;;;;;7.10;3.85;;;2.70;95.60;;;;;;5061055;28;20044;-68
2023/04/04 03:03:21;;;;;;;9.93;3.85;;;2.70;95.40;;;;;;5065809;28;20499;-68
2023/04/04 03:05:48;;;;;;;7.55;3.95;;;2.70;95.10;;;;;;5063830;28;20044;-69
2023/04/04 03:08:14;;;;;;;6.75;3.88;;;2.70;94.80;;;;;;5066361;28;20044;-69
2023/04/04 03:10:40;;;;;;;8.80;3.97;;;2.70;94.80;;;;;;5068488;28;20048;-68
2023/04/04 03:13:06;;;;;;;8.95;4.28;;;2.60;95.00;;;;;;5069122;28;20058;-69
2023/04/04 03:15:33;;;;;;;7.68;3.90;;;2.60;95.00;;;;;;5071561;28;20037;-68
2023/04/04 03:17:59;;;;;;;12.27;4.05;;;2.60;95.00;;;;;;5050060;28;20570;-69
2023/04/04 03:20:25;;;;;;;7.65;3.85;;;2.60;94.60;;;;;;5064740;28;20085;-68
2023/04/04 03:22:51;;;;;;;6.15;3.80;;;2.60;94.40;;;;;;5066435;28;20041;-69
2023/04/04 03:25:16;;;;;;;5.85;3.65;;;2.60;94.30;;;;;;5064702;28;20059;-70
2023/04/04 03:27:42;;;;;;;7.50;3.80;;;2.60;93.90;;;;;;5065809;28;20040;-68
2023/04/04 03:30:09;;;;;;;7.35;4.05;;;2.60;94.00;;;;;;5071696;28;20044;-68
2023/04/04 03:32:38;;;;;;;8.38;3.70;;;2.50;93.70;;;;;;5043330;28;20048;-69
2023/04/04 03:35:05;;;;;;;6.78;3.75;;;2.50;93.80;;;;;;5070546;28;20041;-69
2023/04/04 03:37:31;;;;;;;7.95;3.75;;;2.40;93.60;;;;;;5058863;28;20040;-69
2023/04/04 03:39:57;;;;;;;6.40;3.75;;;2.30;94.10;;;;;;5064349;28;20471;-69
2023/04/04 03:42:23;;;;;;;9.38;4.30;;;2.30;94.60;;;;;;5061415;28;20391;-69
2023/04/04 03:44:49;;;;;;;7.75;4.00;;;2.20;94.10;;;;;;5065612;28;20045;-70
2023/04/04 03:47:15;;;;;;;10.00;3.63;;;2.20;94.40;;;;;;5052217;28;20400;-68
2023/04/04 03:49:41;;;;;;;5.95;3.80;;;2.20;94.50;;;;;;5064046;28;20055;-70
2023/04/04 03:52:07;;;;;;;8.25;3.90;;;2.10;95.00;;;;;;5064988;28;20037;-70
2023/04/04 03:54:33;;;;;;;9.32;4.07;;;2.10;95.40;;;;;;5068075;28;20052;-70
2023/04/04 03:56:59;;;;;;;7.15;4.20;;;2.00;95.90;;;;;;5047304;28;20415;-68
2023/04/04 03:59:24;;;;;;;8.25;3.90;;;2.00;96.10;;;;;;5060852;28;20417;-69
2023/04/04 04:01:51;;;;;;;6.55;4.05;;;2.00;96.40;;;;;;5065312;28;20048;-69
2023/04/04 04:04:16;;;;;;;7.07;3.92;;;2.00;96.70;;;;;;5055224;28;20044;-69
2023/04/04 04:06:42;;;;;;;9.10;4.18;;;2.00;97.70;;;;;;5056041;28;20396;-69
2023/04/04 04:09:09;;;;;;;7.68;4.18;;;2.00;97.50;;;;;;5066131;28;20052;-69
2023/04/04 04:11:35;;;;;;;9.27;4.10;;;2.00;97.70;;;;;;5067996;28;20198;-69
2023/04/04 04:14:02;;;;;;;9.27;3.97;;;1.90;98.00;;;;;;5071286;28;20052;-68
2023/04/04 04:16:28;;;;;;;7.88;4.22;;;1.90;97.30;;;;;;5067171;28;20044;-69
2023/04/04 04:18:54;;;;;;;11.18;3.95;;;1.90;98.40;;;;;;5043125;28;20040;-70
2023/04/04 04:21:19;;;;;;;8.48;3.90;;;1.90;99.10;;;;;;5063410;28;20036;-70
2023/04/04 04:23:45;;;;;;;7.20;3.75;;;1.90;99.40;;;;;;5071220;28;20044;-71
2023/04/04 04:26:11;;;;;;;7.60;3.70;;;1.90;99.80;;;;;;5046460;28;20114;-71
2023/04/04 04:28:37;;;;;;;8.25;4.40;;;1.90;99.90;;;;;;5063024;28;20047;-72
2023/04/04 04:31:05;;;;;;;8.07;3.92;;;1.80;99.90;;;;;;5068085;28;20037;-73
2023/04/04 04:33:30;;;;;;;9.73;3.90;;;1.80;99.90;;;;;;5066489;28;20094;-69
2023/04/04 04:36:03;;;;;;;9.82;4.18;;;1.70;99.90;;;;;;5067585;28;20048;-69
2023/04/04 04:38:29;;;;;;;7.88;4.40;;;1.70;99.90;;;;;;5062883;28;20052;-69
2023/04/04 04:40:56;;;;;;;10.95;4.40;;;1.70;99.90;;;;;;5067934;28;20048;-69
2023/04/04 04:43:22;;;;;;;6.20;4.13;;;1.70;99.90;;;;;;5051813;28;20514;-69
2023/04/04 04:45:49;;;;;;;9.35;4.50;;;1.70;99.90;;;;;;5063875;28;20040;-69
2023/04/04 04:48:16;;;;;;;7.43;4.15;;;1.70;99.90;;;;;;5062209;28;20495;-69
2023/04/04 04:50:46;;;;;;;7.70;4.33;;;1.70;99.90;;;;;;5068460;28;20036;-69
2023/04/04 04:53:12;;;;;;;8.75;4.38;;;1.70;99.90;;;;;;5046719;28;20311;-69
2023/04/04 04:55:38;;;;;;;8.38;4.55;;;1.70;99.90;;;;;;5061302;28;20090;-69
2023/04/04 04:58:05;;;;;;;8.75;4.60;;;1.70;99.90;;;;;;5064662;28;20053;-69
2023/04/04 05:00:31;;;;;;;8.50;4.70;;;1.70;99.90;;;;;;5065009;28;20044;-68
2023/04/04 05:02:59;;;;;;;8.18;4.40;;;1.70;99.90;;;;;;5060829;28;20044;-69
2023/04/04 05:05:25;;;;;;;10.25;4.50;;;1.80;99.90;;;;;;5042889;28;20468;-69
2023/04/04 05:07:51;;;;;;;8.25;4.60;;;1.80;99.90;;;;;;5044113;28;20050;-69
2023/04/04 05:10:17;;;;;;;8.10;4.45;;;1.80;99.90;;;;;;5071146;28;20040;-69
2023/04/04 05:12:43;;;;;;;9.50;4.10;;;1.80;99.90;;;;;;5047238;28;20077;-69
2023/04/04 05:15:10;;;;;;;9.25;4.32;;;1.80;99.90;;;;;;5065143;28;20037;-68
2023/04/04 05:17:37;;;;;;;8.93;4.30;;;1.80;99.90;;;;;;5070402;28;20159;-68
2023/04/04 05:20:03;;;;;;;10.02;4.82;;;1.80;99.90;;;;;;5069280;28;20454;-68
2023/04/04 05:22:29;;;;;;;9.23;4.57;;;1.80;99.90;;;;;;5059349;28;20041;-69
2023/04/04 05:24:55;;;;;;;11.85;5.63;;;1.80;99.90;;;;;;5058981;28;20052;-69
2023/04/04 05:27:20;;;;;;;11.82;6.20;;;1.80;99.90;;;;;;5069365;28;20076;-69
2023/04/04 05:29:47;;;;;;;18.15;6.93;;;1.80;99.90;;;;;;5056238;28;20075;-69
2023/04/04 05:32:13;;;;;;;14.38;6.80;;;1.70;99.90;;;;;;5040813;28;20048;-68
2023/04/04 05:34:39;;;;;;;13.40;7.03;;;1.70;99.90;;;;;;5048860;28;20048;-68
2023/04/04 05:37:05;;;;;;;13.50;6.75;;;1.80;99.90;;;;;;5069915;28;20058;-68
2023/04/04 05:39:30;;;;;;;11.68;6.50;;;1.80;99.90;;;;;;5050925;28;20060;-68
2023/04/04 05:41:56;;;;;;;9.40;5.10;;;1.80;99.90;;;;;;5068620;28;20547;-69
2023/04/04 05:44:22;;;;;;;11.68;5.20;;;1.80;99.90;;;;;;5070122;28;20403;-69
2023/04/04 05:46:47;;;;;;;13.30;5.55;;;1.80;99.90;;;;;;5050161;28;20045;-69
2023/04/04 05:49:16;;;;;;;12.40;5.45;;;1.80;99.90;;;;;;5064364;28;20045;-69
2023/04/04 05:51:41;;;;;;;9.48;5.22;;;1.80;99.90;;;;;;5064866;28;20456;-68
2023/04/04 05:54:07;;;;;;;11.65;5.05;;;1.90;99.90;;;;;;5067231;28;20047;-68
2023/04/04 05:56:33;;;;;;;9.50;4.85;;;1.90;99.90;;;;;;5048729;28;20437;-68
2023/04/04 05:58:59;;;;;;;12.57;5.13;;;2.00;99.90;;;;;;5065033;28;20645;-68
2023/04/04 06:01:25;;;;;;;9.18;4.63;;;2.00;99.90;;;;;;5050033;28;20131;-68
2023/04/04 06:03:51;;;;;;;9.52;4.70;;;2.10;99.90;;;;;;5067826;28;20111;-68
2023/04/04 06:06:17;;;;;;;9.30;4.20;;;2.20;99.90;;;;;;5052502;28;20048;-68
2023/04/04 06:08:43;;;;;;;7.40;4.22;;;2.20;99.90;;;;;;5045243;28;20539;-68
2023/04/04 06:11:08;;;;;;;8.15;3.88;;;2.30;99.80;;;;;;5068686;28;20472;-68
2023/04/04 06:13:34;;;;;;;8.85;4.00;;;2.40;99.30;;;;;;5064560;28;20132;-68
2023/04/04 06:16:00;;;;;;;7.43;3.85;;;2.40;99.20;;;;;;5068060;28;20059;-69
2023/04/04 06:18:25;;;;;;;11.23;4.18;;;2.50;98.90;;;;;;5067194;28;20051;-68
2023/04/04 06:20:54;;;;;;;8.77;3.80;;;2.50;98.50;;;;;;5048149;28;20037;-68
2023/04/04 06:23:20;;;;;;;10.00;4.13;;;2.50;98.40;;;;;;5045809;28;20123;-68
2023/04/04 06:25:46;;;;;;;5.90;3.80;;;2.60;98.40;;;;;;5043232;28;20119;-68
2023/04/04 06:28:14;;;;;;;5.77;3.23;;;2.70;98.20;;;;;;5066375;28;20045;-68
2023/04/04 06:30:40;;;;;;;8.40;3.75;;;2.70;97.30;;;;;;5060978;28;20049;-68
2023/04/04 06:33:06;;;;;;;6.85;3.63;;;2.80;96.90;;;;;;5061885;28;20052;-68
2023/04/04 06:35:31;;;;;;;7.47;3.53;;;2.80;96.20;;;;;;5045480;28;20048;-68
2023/04/04 06:37:57;;;;;;;8.07;3.30;;;2.80;95.80;;;;;;5063865;28;20040;-68
2023/04/04 06:40:23;;;;;;;5.57;3.22;;;2.90;95.60;;;;;;5063283;28;20078;-68
2023/04/04 06:42:51;;;;;;;12.35;3.38;;;2.90;94.80;;;;;;5067023;28;20137;-68
2023/04/04 06:45:16;;;;;;;9.55;3.70;;;2.90;94.60;;;;;;5068040;28;20052;-68
2023/04/04 06:47:42;;;;;;;7.45;3.35;;;3.00;94.60;;;;;;5066294;28;20044;-68
2023/04/04 06:50:09;;;;;;;5.65;3.00;;;3.10;94.10;;;;;;5048893;28;21503;-69
2023/04/04 06:52:35;;;;;;;8.80;3.28;;;3.10;93.50;;;;;;5047845;28;20041;-69
2023/04/04 06:55:00;;;;;;;8.10;3.40;;;3.20;93.20;;;;;;5067222;28;20043;-69
2023/04/04 06:57:26;;;;;;;7.28;3.58;;;3.20;92.40;;;;;;5063164;28;20040;-72
2023/04/04 06:59:52;;;;;;;6.93;3.00;;;3.20;91.80;;;;;;5060239;28;20178;-75
2023/04/04 07:02:18;;;;;;;7.15;3.15;;;3.30;91.60;;;;;;5063483;28;20064;-70
2023/04/04 07:04:44;;;;;;;8.52;3.40;;;3.40;91.40;;;;;;5064459;28;20056;-69
2023/04/04 07:07:11;;;;;;;6.90;3.38;;;3.40;91.20;;;;;;5053123;28;20037;-69
2023/04/04 07:09:36;;;;;;;7.25;3.90;;;3.40;90.90;;;;;;5063784;28;20086;-70
2023/04/04 07:12:02;;;;;;;8.32;4.28;;;3.50;90.60;;;;;;5051802;28;20037;-69
2023/04/04 07:14:28;;;;;;;7.80;4.60;;;3.50;90.40;;;;;;5063458;28;20041;-69
2023/04/04 07:16:54;;;;;;;8.82;4.50;;;3.60;90.20;;;;;;5060404;28;20059;-70
2023/04/04 07:19:22;;;;;;;9.15;4.32;;;3.60;89.50;;;;;;5061345;28;20048;-69
2023/04/04 07:21:49;;;;;;;7.18;4.47;;;3.70;89.00;;;;;;5057468;28;20932;-69
2023/04/04 07:24:15;;;;;;;9.80;4.03;;;3.70;88.00;;;;;;5061851;28;20048;-69
2023/04/04 07:26:41;;;;;;;8.85;4.03;;;3.80;87.90;;;;;;5057577;28;20033;-68
2023/04/04 07:29:06;;;;;;;6.50;3.83;;;3.80;87.40;;;;;;5055832;28;20049;-68
2023/04/04 07:31:32;;;;;;;6.82;3.42;;;3.90;86.70;;;;;;5042396;28;20395;-68
2023/04/04 07:33:58;;;;;;;7.75;3.40;;;3.90;86.00;;;;;;5062547;28;20553;-69
2023/04/04 07:36:23;;;;;;;11.13;3.50;;;4.10;86.00;;;;;;5034640;28;20083;-68
2023/04/04 07:38:49;;;;;;;6.97;2.95;;;4.10;85.30;;;;;;5042794;28;20051;-69
2023/04/04 07:41:15;;;;;;;6.20;3.95;;;4.20;84.80;;;;;;5066126;28;20040;-68
2023/04/04 07:43:41;;;;;;;7.15;3.15;;;4.30;83.50;;;;;;5050723;28;20040;-68
2023/04/04 07:46:06;;;;;;;7.45;2.72;;;4.40;82.60;;;;;;5059240;28;20043;-68
2023/04/04 07:48:32;;;;;;;5.97;2.78;;;4.50;81.20;;;;;;5057411;28;20395;-67
2023/04/04 07:51:00;;;;;;;8.48;2.78;;;4.50;81.20;;;;;;5070679;28;20043;-68
2023/04/04 07:53:26;;;;;;;7.03;2.40;;;4.50;80.60;;;;;;5058881;28;20546;-68
2023/04/04 07:55:52;;;;;;;7.35;2.60;;;4.60;79.50;;;;;;5069901;28;20037;-67
2023/04/04 07:58:17;;;;;;;4.72;2.80;;;4.60;78.60;;;;;;5060063;28;20041;-68
2023/04/04 08:00:43;;;;;;;7.32;2.88;;;4.70;77.80;;;;;;5066787;28;20134;-68
2023/04/04 08:03:09;;;;;;;6.57;2.28;;;4.70;77.00;;;;;;5060414;28;20045;-67
2023/04/04 08:05:34;;;;;;;7.85;2.78;;;4.80;76.60;;;;;;5064213;28;20080;-67
2023/04/04 08:08:00;;;;;;;5.50;2.50;;;4.80;75.90;;;;;;5046651;28;20029;-66
2023/04/04 08:10:26;;;;;;;4.57;2.20;;;4.90;76.00;;;;;;5065876;28;20127;-67
2023/04/04 08:12:52;;;;;;;5.05;2.22;;;5.00;75.60;;;;;;5065318;28;20052;-67
2023/04/04 08:15:17;;;;;;;7.38;2.60;;;5.00;75.60;;;;;;5045333;28;20048;-67
2023/04/04 08:17:43;;;;;;;8.43;2.80;;;5.10;75.30;;;;;;5067184;28;20037;-66
2023/04/04 08:20:09;;;;;;;5.72;2.28;;;5.20;75.00;;;;;;5070010;28;20068;-68
2023/04/04 08:22:35;;;;;;;8.25;2.70;;;5.20;73.80;;;;;;5044824;28;20048;-68
2023/04/04 08:25:02;;;;;;;5.55;2.35;;;5.20;73.30;;;;;;5066646;28;21063;-70
2023/04/04 08:27:27;;;;;;;5.50;2.55;;;5.30;73.40;;;;;;5066741;28;20041;-69
2023/04/04 08:29:53;;;;;;;5.22;2.10;;;5.40;73.80;;;;;;5061888;28;20064;-69
2023/04/04 08:32:19;;;;;;;5.20;2.20;;;5.50;73.80;;;;;;5065518;28;20036;-69
2023/04/04 08:34:45;;;;;;;7.75;2.45;;;5.50;73.30;;;;;;5042215;28;20056;-69
2023/04/04 08:37:11;;;;;;;7.22;2.25;;;5.60;72.90;;;;;;5060806;28;20417;-70
2023/04/04 08:39:36;;;;;;;6.40;2.97;;;5.70;72.00;;;;;;5053352;28;20103;-67
2023/04/04 08:42:06;;;;;;;6.90;1.88;;;5.80;70.50;;;;;;5066805;28;20045;-68
2023/04/04 08:44:34;;;;;;;4.55;1.90;;;5.80;67.60;;;;;;5054967;28;20555;-69
2023/04/04 08:47:04;;;;;;;4.32;2.10;;;5.80;66.70;;;;;;5057499;28;20045;-69
2023/04/04 08:49:33;;;;;;;4.82;1.70;;;5.80;66.60;;;;;;5062796;28;20132;-68
2023/04/04 08:52:01;;;;;;;4.28;1.90;;;5.90;65.50;;;;;;5056457;28;20044;-69
2023/04/04 08:54:29;;;;;;;6.68;2.13;;;5.90;63.40;;;;;;5057999;28;20052;-69
2023/04/04 08:56:56;;;;;;;7.47;1.80;;;6.00;63.40;;;;;;5053335;28;20041;-69
2023/04/04 08:59:21;;;;;;;4.72;2.08;;;6.10;63.40;;;;;;5066264;28;20579;-69
2023/04/04 09:01:47;;;;;;;3.15;1.88;;;6.10;63.30;;;;;;5056774;28;20096;-70
2023/04/04 09:04:13;;;;;;;5.40;2.33;;;6.10;63.10;;;;;;5056028;28;20074;-69
2023/04/04 09:06:39;;;;;;;5.07;2.28;;;6.20;63.40;;;;;;5063659;28;20040;-70
2023/04/04 09:09:06;;;;;;;5.63;1.85;;;6.30;63.70;;;;;;5064599;28;20087;-66
2023/04/04 09:11:32;;;;;;;8.02;2.40;;;6.40;63.50;;;;;;5065173;28;20036;-67
2023/04/04 09:14:01;;;;;;;5.30;2.10;;;6.40;63.80;;;;;;5070970;28;20029;-66
2023/04/04 09:16:29;;;;;;;7.70;2.10;;;6.50;63.80;;;;;;5069730;28;20106;-68
2023/04/04 09:18:54;;;;;;;5.70;2.35;;;6.50;63.80;;;;;;5067793;28;20044;-67
2023/04/04 09:21:23;;;;;;;4.35;1.80;;;6.60;62.90;;;;;;5063473;28;20079;-67
2023/04/04 09:23:58;;;;;;;4.38;2.28;;;6.60;63.30;;;;;;5055576;28;20053;-69
2023/04/04 09:26:24;;;;;;;4.22;2.13;;;6.70;63.00;;;;;;5060335;28;20044;-68
2023/04/04 09:28:54;;;;;;;7.95;2.38;;;6.80;62.60;;;;;;5066581;28;20036;-68
2023/04/04 09:31:20;;;;;;;6.47;2.55;;;6.80;61.70;;;;;;5063414;28;20045;-68
2023/04/04 09:33:49;;;;;;;6.05;2.33;;;6.80;61.30;;;;;;5053395;28;20037;-68
2023/04/04 09:36:14;;;;;;;6.20;2.78;;;6.80;62.00;;;;;;5058503;28;21780;-68
2023/04/04 09:38:48;;;;;;;5.43;2.63;;;7.00;62.80;;;;;;5056067;28;20064;-68
2023/04/04 09:41:15;;;;;;;5.95;2.53;;;7.00;61.70;;;;;;5040628;28;20053;-68
2023/04/04 09:43:45;;;;;;;6.30;2.60;;;7.00;60.90;;;;;;5051912;28;20049;-68
2023/04/04 09:46:10;;;;;;;5.28;2.30;;;7.00;60.80;;;;;;5055162;28;20032;-68
2023/04/04 09:48:36;;;;;;;6.03;2.42;;;7.10;60.70;;;;;;5043929;28;20402;-68
2023/04/04 09:51:06;;;;;;;4.90;2.28;;;7.10;60.70;;;;;;5060291;28;20074;-68
2023/04/04 09:53:38;;;;;;;6.55;2.40;;;7.10;58.70;;;;;;5057387;28;20041;-67
2023/04/04 09:56:05;;;;;;;6.00;2.42;;;7.10;59.10;;;;;;5040250;28;20037;-67
2023/04/04 09:58:34;;;;;;;5.07;2.60;;;7.20;59.90;;;;;;5057385;28;20068;-67
2023/04/04 10:01:02;;;;;;;4.45;2.30;;;7.30;59.80;;;;;;5058401;28;20106;-67
2023/04/04 10:03:29;;;;;;;5.45;2.60;;;7.30;59.90;;;;;;5067299;28;20106;-67
2023/04/04 10:06:05;;;;;;;7.85;3.10;;;7.40;59.50;;;;;;5046728;28;20093;-67
2023/04/04 10:08:32;;;;;;;4.72;2.15;;;7.50;59.80;;;;;;5055868;28;20041;-67
2023/04/04 10:11:00;;;;;;;4.83;2.10;;;7.50;59.00;;;;;;5066198;28;20052;-68
2023/04/04 10:13:31;;;;;;;5.97;2.30;;;7.60;59.30;;;;;;5063774;28;20029;-67
2023/04/04 10:15:59;;;;;;;5.25;2.20;;;7.60;57.90;;;;;;5033778;28;20056;-67
2023/04/04 10:18:29;;;;;;;4.18;2.20;;;7.60;57.20;;;;;;5058886;28;20036;-68
2023/04/04 10:21:01;;;;;;;5.13;2.58;;;7.60;57.30;;;;;;5054406;28;20079;-71
2023/04/04 10:23:27;;;;;;;5.63;2.75;;;7.60;57.50;;;;;;5039938;28;20190;-69
2023/04/04 10:25:54;;;;;;;4.93;2.30;;;7.70;57.10;;;;;;5066138;28;20092;-70
2023/04/04 10:28:21;;;;;;;4.28;2.45;;;7.70;57.50;;;;;;5059882;28;20043;-70
2023/04/04 10:31:10;;;;;;;5.53;2.40;;;7.80;57.30;;;;;;5065432;28;20427;-68
2023/04/04 10:34:17;;;;;;;6.18;2.22;;;7.80;56.60;;;;;;5055101;28;20040;-68
2023/04/04 10:37:07;;;;;;;6.88;2.70;;;7.80;56.20;;;;;;5043662;28;20102;-71
2023/04/04 10:39:48;;;;;;;4.32;2.25;;;7.80;56.50;;;;;;5058654;28;20044;-69
2023/04/04 10:42:17;;;;;;;5.60;2.33;;;7.90;56.40;;;;;;5062242;28;20044;-68
2023/04/04 10:44:44;;;;;;;6.00;2.30;;;7.80;56.10;;;;;;5035220;28;20045;-66
2023/04/04 10:47:20;;;;;;;5.22;2.13;;;7.90;56.20;;;;;;5063028;28;20045;-66
2023/04/04 10:49:47;;;;;;;4.45;1.90;;;8.00;56.00;;;;;;5058261;28;20036;-67
2023/04/04 10:52:15;;;;;;;5.03;1.77;;;8.00;55.40;;;;;;5065680;28;20803;-67
2023/04/04 10:54:41;;;;;;;;;;;8.00;55.10;;;;;;5057859;28;20302;-68
2023/04/04 10:57:07;;;;;;;4.22;2.00;;;8.10;55.50;;;;;;5043724;28;19930;-67
2023/04/04 10:59:32;;;;;;;4.40;1.90;;;8.20;55.80;;;;;;5065317;28;20123;-67
2023/04/04 11:01:59;;;;;;;6.22;2.17;;;8.40;55.80;;;;;;5061250;28;20135;-68
2023/04/04 11:04:33;;;;;;;4.32;1.88;;;8.50;55.60;;;;;;5059778;28;20049;-67
2023/04/04 11:07:12;;;;;;;4.25;2.00;;;8.60;54.90;;;;;;5035812;28;20071;-67
2023/04/04 11:10:00;;;;;;;5.13;2.10;;;8.70;54.40;;;;;;5037688;28;20036;-68
2023/04/04 11:12:31;;;;;;;5.03;1.77;;;8.80;51.80;;;;;;5070383;28;20499;-69
2023/04/04 11:15:12;;;;;;;5.00;1.88;;;8.80;52.70;;;;;;5066899;28;20032;-68
2023/04/04 11:17:47;;;;;;;5.22;2.10;;;8.80;52.50;;;;;;5060758;28;20037;-68
2023/04/04 11:20:44;;;;;;;3.58;2.00;;;8.90;51.90;;;;;;5054341;28;20607;-67
2023/04/04 11:23:24;;;;;;;7.55;2.30;;;9.00;52.10;;;;;;5050099;28;20434;-67
2023/04/04 11:25:51;;;;;;;5.47;2.13;;;9.10;52.90;;;;;;5057666;28;20037;-67
2023/04/04 11:28:40;;;;;;;5.47;2.10;;;9.20;54.00;;;;;;5059320;28;20037;-67
2023/04/04 11:31:19;;;;;;;4.20;2.22;;;9.40;54.00;;;;;;5039145;28;20056;-68
2023/04/04 11:34:04;;;;;;;4.70;2.05;;;9.50;52.90;;;;;;5054793;28;20040;-68
2023/04/04 11:36:40;;;;;;;4.90;2.10;;;9.50;50.30;;;;;;5064412;28;20502;-69
2023/04/04 11:39:12;;;;;;;3.83;1.92;;;9.50;49.90;;;;;;5054695;28;20052;-67
2023/04/04 11:41:50;;;;;;;5.68;2.30;;;9.50;50.10;;;;;;5055231;28;20037;-68
2023/04/04 11:44:17;;;;;;;6.60;2.17;;;9.50;51.00;;;;;;5054202;28;20044;-69
2023/04/04 11:46:44;;;;;;;4.40;1.97;;;9.50;51.20;;;;;;5055333;28;20083;-69
2023/04/04 11:49:10;;;;;;;4.55;1.90;;;9.60;50.20;;;;;;5054267;28;20038;-69
2023/04/04 11:51:39;;;;;;;4.85;2.20;;;9.50;49.30;;;;;;5054533;28;20045;-74
2023/04/04 11:54:14;;;;;;;4.38;2.22;;;9.50;48.50;;;;;;5053288;28;20052;-68
2023/04/04 11:56:43;;;;;;;6.50;2.42;;;9.50;49.30;;;;;;5054262;28;20041;-68
2023/04/04 11:59:16;;;;;;;3.75;2.08;;;9.60;50.40;;;;;;5062550;28;20052;-68
2023/04/04 12:01:43;;;;;;;3.83;2.10;;;9.70;49.50;;;;;;5036008;28;20452;-68
2023/04/04 12:04:09;;;;;;;3.53;1.88;;;9.70;49.40;;;;;;5053782;28;20076;-68
2023/04/04 12:06:37;;;;;;;5.00;2.17;;;9.70;49.70;;;;;;5057955;28;20044;-68
2023/04/04 12:09:04;;;;;;;5.55;2.20;;;9.80;50.20;;;;;;5063173;28;20492;-68
2023/04/04 12:11:35;;;;;;;4.72;2.13;;;9.80;50.60;;;;;;5053667;28;20041;-68
2023/04/04 12:14:01;;;;;;;3.47;2.05;;;9.90;50.50;;;;;;5060747;28;20033;-69
2023/04/04 12:16:27;;;;;;;6.13;2.50;;;10.00;50.10;;;;;;5054559;28;20041;-69
2023/04/04 12:18:55;;;;;;;4.40;1.93;;;10.00;48.20;;;;;;5052627;28;20041;-69
2023/04/04 12:21:21;;;;;;;4.72;2.33;;;9.90;47.70;;;;;;5054151;28;20077;-69
2023/04/04 12:23:49;;;;;;;6.93;2.40;;;10.00;47.60;;;;;;5053284;28;20107;-69
2023/04/04 12:26:16;;;;;;;6.38;2.20;;;10.00;48.30;;;;;;5054877;28;20045;-69
2023/04/04 12:28:44;;;;;;;5.07;2.10;;;10.00;48.10;;;;;;5058524;28;20582;-70
2023/04/04 12:31:11;;;;;;;5.65;2.38;;;10.00;47.20;;;;;;5039503;28;20098;-68
2023/04/04 12:33:40;;;;;;;4.22;2.53;;;10.00;47.00;;;;;;5057896;28;20048;-69
2023/04/04 12:36:06;;;;;;;5.13;2.35;;;9.90;47.30;;;;;;5062078;28;20443;-68
2023/04/04 12:38:32;;;;;;;4.70;2.20;;;9.90;48.30;;;;;;5055880;28;20033;-69
2023/04/04 12:40:58;;;;;;;5.93;2.47;;;9.90;48.10;;;;;;5060219;28;20046;-69
2023/04/04 12:43:26;;;;;;;4.88;2.20;;;9.90;49.20;;;;;;5069892;28;20036;-68
2023/04/04 12:45:55;;;;;;;4.35;1.95;;;9.90;47.50;;;;;;5054838;28;20066;-68
2023/04/04 12:48:27;;;;;;;4.90;2.10;;;9.90;47.90;;;;;;5069827;28;20554;-67
2023/04/04 12:50:55;;;;;;;6.40;2.50;;;9.90;47.00;;;;;;5038393;28;20049;-68
2023/04/04 12:53:23;;;;;;;4.60;2.20;;;9.90;47.00;;;;;;5060741;28;20044;-68
2023/04/04 12:55:50;;;;;;;3.80;1.95;;;10.00;47.30;;;;;;5064293;28;20044;-67
2023/04/04 12:58:20;;;;;;;5.25;2.20;;;10.10;47.40;;;;;;5068483;28;20070;-68